Time;durP1;ratioP1;P1;durP2;ratioP2;P2;SDS_P1;SDS_P2;PMS_P1;PMS_P2;Temp;Humidity;BMP_temperature;BMP_pressure;BME280_temperature;BME280_humidity;BME280_pressure;Samples;Min_cycle;Max_cycle;Signal;HPM_P1;HPM_P2
2021/08/02 00:00:10;;;;;;;2.00;1.35;;;;;20.20;101150.00;;;;5046609;28;20226;-75
2021/08/02 00:02:44;;;;;;;1.38;0.70;;;;;20.20;101144.00;;;;5045793;28;20562;-75
2021/08/02 00:05:12;;;;;;;2.80;1.10;;;;;20.20;101147.00;;;;5045706;28;20661;-74
2021/08/02 00:07:42;;;;;;;1.00;0.80;;;;;20.30;101142.00;;;;5046876;28;20278;-74
2021/08/02 00:10:11;;;;;;;1.20;0.90;;;;;20.20;101133.00;;;;5048127;28;20212;-75
2021/08/02 00:12:46;;;;;;;2.50;1.20;;;;;20.20;101139.00;;;;5048590;28;20204;-75
2021/08/02 00:15:17;;;;;;;1.20;1.08;;;;;20.20;101132.00;;;;5047988;28;20207;-75
2021/08/02 00:17:45;;;;;;;2.10;1.30;;;;;20.30;101130.00;;;;5051101;28;20203;-75
2021/08/02 00:20:15;;;;;;;1.63;0.70;;;;;20.30;101125.00;;;;5052111;28;20218;-75
2021/08/02 00:22:42;;;;;;;1.52;1.02;;;;;20.30;101128.00;;;;5052544;28;20199;-76
2021/08/02 00:25:11;;;;;;;3.58;1.45;;;;;20.30;101129.00;;;;5052013;28;20204;-76
2021/08/02 00:27:39;;;;;;;1.00;0.75;;;;;20.30;101132.00;;;;5039062;28;20215;-75
2021/08/02 00:30:08;;;;;;;1.00;0.80;;;;;20.30;101144.00;;;;5051999;28;20188;-75
2021/08/02 00:32:37;;;;;;;1.60;1.02;;;;;20.30;101143.00;;;;5051565;28;20692;-75
2021/08/02 00:35:06;;;;;;;1.30;0.95;;;;;20.30;101143.00;;;;5050922;28;20227;-75
2021/08/02 00:37:39;;;;;;;2.08;1.23;;;;;20.30;101142.00;;;;5051756;28;20206;-75
2021/08/02 00:40:43;;;;;;;1.60;1.17;;;;;20.20;101144.00;;;;5051257;28;20220;-75
2021/08/02 00:43:24;;;;;;;1.38;1.10;;;;;20.20;101144.00;;;;5036660;28;20207;-75
2021/08/02 00:45:52;;;;;;;1.88;0.90;;;;;20.30;101149.00;;;;5050108;28;20195;-75
2021/08/02 00:48:27;;;;;;;1.25;1.10;;;;;20.20;101140.00;;;;5050809;28;20203;-75
2021/08/02 00:50:58;;;;;;;3.28;1.20;;;;;20.30;101147.00;;;;5051495;28;20568;-75
2021/08/02 00:53:27;;;;;;;1.60;1.30;;;;;20.30;101143.00;;;;5051186;28;20611;-75
2021/08/02 00:55:57;;;;;;;2.33;1.20;;;;;20.30;101143.00;;;;5052386;28;20199;-75
2021/08/02 00:58:26;;;;;;;1.92;1.15;;;;;20.30;101147.00;;;;5051451;28;20207;-75
2021/08/02 01:00:55;;;;;;;1.40;0.88;;;;;20.30;101153.00;;;;5051747;28;20223;-75
2021/08/02 01:03:24;;;;;;;1.63;1.00;;;;;20.30;101152.00;;;;5051183;28;20227;-75
2021/08/02 01:05:54;;;;;;;2.08;0.82;;;;;20.30;101148.00;;;;5046162;28;20204;-76
2021/08/02 01:08:25;;;;;;;1.30;1.10;;;;;20.30;101146.00;;;;5051236;28;20233;-76
2021/08/02 01:10:55;;;;;;;2.40;1.25;;;;;20.30;101147.00;;;;5043244;28;20768;-75
2021/08/02 01:13:25;;;;;;;2.22;1.00;;;;;20.30;101141.00;;;;5052262;28;20282;-75
2021/08/02 01:15:54;;;;;;;2.95;1.25;;;;;20.30;101142.00;;;;5048873;28;20211;-75
2021/08/02 01:18:24;;;;;;;2.65;1.58;;;;;20.30;101145.00;;;;5046769;28;20207;-75
2021/08/02 01:20:54;;;;;;;1.73;1.35;;;;;20.30;101145.00;;;;5049935;28;20231;-75
2021/08/02 01:23:24;;;;;;;1.90;1.05;;;;;20.30;101147.00;;;;5050715;28;20203;-76
2021/08/02 01:26:15;;;;;;;1.45;1.05;;;;;20.20;101150.00;;;;5051079;28;20203;-75
2021/08/02 01:29:19;;;;;;;2.40;1.30;;;;;20.20;101149.00;;;;5050221;28;20208;-75
2021/08/02 01:31:46;;;;;;;0.95;0.80;;;;;20.30;101151.00;;;;5050348;28;20290;-76
2021/08/02 01:34:14;;;;;;;1.40;1.00;;;;;20.30;101151.00;;;;5041952;28;20245;-76
2021/08/02 01:36:41;;;;;;;1.60;1.23;;;;;20.30;101152.00;;;;5045083;28;20214;-75
2021/08/02 01:39:10;;;;;;;1.98;1.00;;;;;20.30;101151.00;;;;5042270;28;20196;-75
2021/08/02 01:41:38;;;;;;;2.25;1.15;;;;;20.30;101156.00;;;;5051499;28;20223;-75
2021/08/02 01:44:05;;;;;;;3.42;1.20;;;;;20.30;101162.00;;;;5051408;28;20214;-75
2021/08/02 01:46:41;;;;;;;5.05;1.20;;;;;20.20;101151.00;;;;5050382;28;20192;-76
2021/08/02 01:49:15;;;;;;;1.70;0.85;;;;;20.30;101153.00;;;;5049456;28;20203;-76
2021/08/02 01:51:45;;;;;;;1.63;1.08;;;;;20.30;101156.00;;;;5032939;28;20203;-75
2021/08/02 01:54:30;;;;;;;1.00;0.90;;;;;20.20;101154.00;;;;5050702;28;20776;-75
2021/08/02 01:57:03;;;;;;;2.38;1.13;;;;;20.30;101160.00;;;;5045214;28;20188;-76
2021/08/02 01:59:35;;;;;;;1.02;0.88;;;;;20.30;101160.00;;;;5050155;28;20199;-76
2021/08/02 02:02:07;;;;;;;2.47;0.95;;;;;20.30;101162.00;;;;5051501;28;20233;-76
2021/08/02 02:04:38;;;;;;;2.13;1.10;;;;;20.30;101161.00;;;;5050582;28;20611;-76
2021/08/02 02:07:08;;;;;;;1.13;0.93;;;;;20.30;101161.00;;;;5050210;28;20191;-76
2021/08/02 02:09:41;;;;;;;1.30;1.20;;;;;20.30;101162.00;;;;5050808;28;20203;-76
2021/08/02 02:12:11;;;;;;;0.82;0.75;;;;;20.30;101163.00;;;;5048837;28;21059;-76
2021/08/02 02:14:40;;;;;;;1.42;0.98;;;;;20.40;101162.00;;;;5048598;28;20246;-76
2021/08/02 02:17:09;;;;;;;1.02;0.77;;;;;20.40;101157.00;;;;5049077;28;20569;-76
2021/08/02 02:19:37;;;;;;;1.70;1.05;;;;;20.40;101150.00;;;;5048442;28;20294;-76
2021/08/02 02:22:05;;;;;;;1.55;1.10;;;;;20.40;101139.00;;;;5046931;28;20227;-76
2021/08/02 02:24:38;;;;;;;2.47;0.90;;;;;20.40;101150.00;;;;5041656;28;20204;-75
2021/08/02 02:27:06;;;;;;;1.75;0.98;;;;;20.40;101143.00;;;;5050081;28;20227;-75
2021/08/02 02:29:35;;;;;;;1.42;0.80;;;;;20.40;101150.00;;;;5049294;28;20253;-76
2021/08/02 02:32:04;;;;;;;1.70;1.00;;;;;20.40;101151.00;;;;5049708;28;20211;-76
2021/08/02 02:34:32;;;;;;;1.92;0.98;;;;;20.40;101151.00;;;;5049358;28;21255;-76
2021/08/02 02:37:00;;;;;;;0.75;0.65;;;;;20.40;101146.00;;;;5038083;28;20211;-76
2021/08/02 02:39:28;;;;;;;1.60;0.80;;;;;20.40;101144.00;;;;5049903;28;20191;-76
2021/08/02 02:41:58;;;;;;;0.88;0.75;;;;;20.40;101155.00;;;;5049578;28;20228;-76
2021/08/02 02:44:26;;;;;;;3.67;1.10;;;;;20.40;101153.00;;;;5046810;28;20837;-76
2021/08/02 02:46:54;;;;;;;1.23;0.95;;;;;20.40;101146.00;;;;5049355;28;20208;-76
2021/08/02 02:49:23;;;;;;;6.43;1.13;;;;;20.40;101146.00;;;;5048960;28;20215;-76
2021/08/02 02:51:51;;;;;;;2.47;1.05;;;;;20.40;101153.00;;;;5049017;28;20222;-76
2021/08/02 02:54:22;;;;;;;1.50;1.00;;;;;20.40;101153.00;;;;5047546;28;20199;-76
2021/08/02 02:56:49;;;;;;;1.35;0.75;;;;;20.40;101158.00;;;;5048178;28;20203;-76
2021/08/02 02:59:18;;;;;;;2.35;1.00;;;;;20.40;101158.00;;;;5049395;28;20196;-76
2021/08/02 03:01:49;;;;;;;1.63;0.80;;;;;20.40;101158.00;;;;5048469;28;20234;-76
2021/08/02 03:04:19;;;;;;;1.55;0.80;;;;;20.40;101163.00;;;;5040221;28;20208;-76
2021/08/02 03:06:48;;;;;;;1.10;0.73;;;;;20.40;101160.00;;;;5029709;28;20192;-76
2021/08/02 03:09:19;;;;;;;1.40;1.20;;;;;20.40;101165.00;;;;5029062;28;20205;-76
2021/08/02 03:11:47;;;;;;;1.45;1.00;;;;;20.40;101161.00;;;;5042675;28;20199;-76
2021/08/02 03:14:17;;;;;;;1.23;1.05;;;;;20.40;101160.00;;;;5048329;28;20202;-76
2021/08/02 03:16:44;;;;;;;2.72;1.10;;;;;20.40;101165.00;;;;5047930;28;20191;-76
2021/08/02 03:19:11;;;;;;;1.95;0.90;;;;;20.40;101160.00;;;;5047071;28;20207;-76
2021/08/02 03:21:38;;;;;;;3.55;1.10;;;;;20.40;101156.00;;;;5047006;28;20234;-76
2021/08/02 03:24:12;;;;;;;1.00;0.75;;;;;20.30;101153.00;;;;5047859;28;20188;-76
2021/08/02 03:26:44;;;;;;;1.40;1.00;;;;;20.30;101167.00;;;;5048134;28;20239;-76
2021/08/02 03:29:22;;;;;;;2.05;1.02;;;;;20.30;101159.00;;;;5048762;28;20195;-76
2021/08/02 03:31:54;;;;;;;1.40;0.80;;;;;20.30;101165.00;;;;5047840;28;20680;-76
2021/08/02 03:34:26;;;;;;;1.27;1.02;;;;;20.30;101162.00;;;;5047340;28;20223;-76
2021/08/02 03:36:55;;;;;;;2.08;0.98;;;;;20.30;101173.00;;;;5048897;28;20219;-76
2021/08/02 03:39:24;;;;;;;1.35;0.63;;;;;20.30;101171.00;;;;5046802;28;20210;-76
2021/08/02 03:41:52;;;;;;;1.85;0.77;;;;;20.30;101173.00;;;;5047318;28;20227;-76
2021/08/02 03:44:22;;;;;;;1.38;0.95;;;;;20.20;101175.00;;;;5048212;28;20200;-76
2021/08/02 03:46:50;;;;;;;2.03;0.88;;;;;20.20;101177.00;;;;5048465;28;20211;-76
2021/08/02 03:49:17;;;;;;;1.30;0.88;;;;;20.20;101164.00;;;;5045638;28;20294;-76
2021/08/02 03:51:46;;;;;;;2.00;1.00;;;;;20.20;101181.00;;;;5045631;28;20211;-75
2021/08/02 03:54:15;;;;;;;1.30;0.90;;;;;20.10;101181.00;;;;5048470;28;20191;-76
2021/08/02 03:56:44;;;;;;;1.77;1.05;;;;;20.10;101189.00;;;;5048311;28;20203;-76
2021/08/02 03:59:11;;;;;;;1.52;0.70;;;;;20.10;101191.00;;;;5048172;28;20203;-76
2021/08/02 04:01:42;;;;;;;2.17;0.95;;;;;20.00;101191.00;;;;5048712;28;20235;-76
2021/08/02 04:04:10;;;;;;;1.20;0.90;;;;;20.00;101195.00;;;;5041927;28;20204;-76
2021/08/02 04:06:38;;;;;;;1.33;0.93;;;;;20.00;101196.00;;;;5047420;28;20203;-76
2021/08/02 04:09:08;;;;;;;1.55;1.17;;;;;19.90;101197.00;;;;5048422;28;20195;-76
2021/08/02 04:11:36;;;;;;;1.40;0.93;;;;;19.90;101194.00;;;;5046834;28;20197;-76
2021/08/02 04:14:04;;;;;;;2.03;0.90;;;;;19.90;101200.00;;;;5047793;28;20242;-76
2021/08/02 04:16:31;;;;;;;1.30;0.98;;;;;19.90;101200.00;;;;5047102;28;20321;-76
2021/08/02 04:19:00;;;;;;;1.52;0.98;;;;;19.80;101199.00;;;;5046853;28;20199;-76
2021/08/02 04:21:27;;;;;;;1.33;0.80;;;;;19.80;101201.00;;;;5046054;28;20604;-75
2021/08/02 04:23:54;;;;;;;3.92;1.15;;;;;19.80;101208.00;;;;5047192;28;20204;-76
2021/08/02 04:26:22;;;;;;;1.73;0.88;;;;;19.80;101218.00;;;;5048253;28;20243;-76
2021/08/02 04:28:55;;;;;;;1.30;0.80;;;;;19.80;101212.00;;;;5046868;28;20218;-76
2021/08/02 04:31:24;;;;;;;2.03;0.95;;;;;19.70;101206.00;;;;5048016;28;20211;-76
2021/08/02 04:33:51;;;;;;;2.75;1.20;;;;;19.70;101212.00;;;;5046834;28;20223;-76
2021/08/02 04:36:20;;;;;;;1.15;0.80;;;;;19.70;101205.00;;;;5048337;28;20208;-75
2021/08/02 04:38:48;;;;;;;1.27;1.02;;;;;19.70;101208.00;;;;5046458;28;20207;-76
2021/08/02 04:41:15;;;;;;;1.27;0.88;;;;;19.70;101205.00;;;;5047628;28;20210;-76
2021/08/02 04:43:43;;;;;;;2.60;0.93;;;;;19.60;101199.00;;;;5046159;28;20831;-76
2021/08/02 04:46:10;;;;;;;0.75;0.55;;;;;19.70;101213.00;;;;5048208;28;20212;-76
2021/08/02 04:48:37;;;;;;;1.30;0.70;;;;;19.70;101211.00;;;;5036312;28;20184;-75
2021/08/02 04:51:04;;;;;;;0.88;0.70;;;;;19.60;101214.00;;;;5046748;28;20206;-76
2021/08/02 04:53:36;;;;;;;2.40;1.00;;;;;19.60;101217.00;;;;5047018;28;20195;-76
2021/08/02 04:56:03;;;;;;;1.33;0.90;;;;;19.70;101211.00;;;;5044980;28;21026;-76
2021/08/02 04:58:31;;;;;;;1.40;1.10;;;;;19.70;101222.00;;;;5046978;28;20215;-76
2021/08/02 05:00:58;;;;;;;1.25;0.70;;;;;19.70;101220.00;;;;5041464;28;20203;-76
2021/08/02 05:03:25;;;;;;;2.28;0.95;;;;;19.70;101216.00;;;;5048899;28;20250;-76
2021/08/02 05:05:54;;;;;;;1.27;1.15;;;;;19.70;101215.00;;;;5050857;28;20203;-76
2021/08/02 05:08:22;;;;;;;1.02;0.63;;;;;19.80;101214.00;;;;5050578;28;20312;-75
2021/08/02 05:10:51;;;;;;;1.92;0.77;;;;;19.80;101222.00;;;;5037692;28;20204;-76
2021/08/02 05:13:18;;;;;;;0.95;0.80;;;;;19.90;101226.00;;;;5045273;28;20199;-76
2021/08/02 05:15:45;;;;;;;3.15;1.00;;;;;19.90;101225.00;;;;5049359;28;20669;-76
2021/08/02 05:18:14;;;;;;;1.52;0.95;;;;;20.00;101228.00;;;;5042543;28;20666;-76
2021/08/02 05:20:42;;;;;;;2.60;0.82;;;;;20.00;101225.00;;;;5041702;28;20195;-76
2021/08/02 05:23:10;;;;;;;0.90;0.80;;;;;20.10;101225.00;;;;5041236;28;20321;-76
2021/08/02 05:25:37;;;;;;;1.38;0.90;;;;;20.10;101223.00;;;;5042088;28;20192;-76
2021/08/02 05:28:06;;;;;;;1.58;1.17;;;;;20.10;101229.00;;;;5048613;28;20211;-77
2021/08/02 05:30:33;;;;;;;2.03;1.02;;;;;20.20;101236.00;;;;5049621;28;20661;-76
2021/08/02 05:33:00;;;;;;;2.97;0.90;;;;;20.20;101233.00;;;;5039120;28;20196;-77
2021/08/02 05:35:28;;;;;;;2.28;0.70;;;;;20.30;101231.00;;;;5039180;28;20239;-77
2021/08/02 05:37:55;;;;;;;2.17;1.05;;;;;20.30;101239.00;;;;5045209;28;20202;-76
2021/08/02 05:40:22;;;;;;;1.92;1.00;;;;;20.30;101236.00;;;;5047918;28;20191;-77
2021/08/02 05:42:50;;;;;;;1.80;1.10;;;;;20.40;101228.00;;;;5049908;28;20219;-77
2021/08/02 05:45:19;;;;;;;2.13;1.15;;;;;20.40;101240.00;;;;5048734;28;20207;-77
2021/08/02 05:47:46;;;;;;;1.10;0.95;;;;;20.50;101235.00;;;;5046230;28;20187;-76
2021/08/02 05:50:13;;;;;;;1.40;1.00;;;;;20.60;101236.00;;;;5050189;28;20200;-77
2021/08/02 05:52:41;;;;;;;2.40;1.10;;;;;20.60;101234.00;;;;5047316;28;20199;-77
2021/08/02 05:55:10;;;;;;;1.60;1.10;;;;;20.70;101234.00;;;;5047251;28;20207;-75
2021/08/02 05:57:37;;;;;;;1.65;0.85;;;;;20.80;101242.00;;;;5045028;28;20250;-76
2021/08/02 06:00:06;;;;;;;1.33;0.75;;;;;20.90;101238.00;;;;5041347;28;20196;-76
2021/08/02 06:02:35;;;;;;;1.15;0.90;;;;;21.00;101241.00;;;;5046098;28;20227;-76
2021/08/02 06:05:02;;;;;;;1.65;1.10;;;;;21.00;101236.00;;;;5048073;28;20219;-78
2021/08/02 06:07:29;;;;;;;1.33;0.95;;;;;21.10;101240.00;;;;5049014;28;20217;-75
2021/08/02 06:09:57;;;;;;;1.52;0.88;;;;;21.20;101243.00;;;;5045340;28;20203;-75
2021/08/02 06:12:24;;;;;;;2.00;0.90;;;;;21.30;101237.00;;;;5043686;28;20202;-76
2021/08/02 06:14:51;;;;;;;1.33;0.80;;;;;21.30;101237.00;;;;5046178;28;20203;-75
2021/08/02 06:17:19;;;;;;;2.53;0.68;;;;;21.40;101236.00;;;;5046438;28;20662;-76
2021/08/02 06:19:47;;;;;;;1.02;0.73;;;;;21.40;101244.00;;;;5045638;28;20576;-75
2021/08/02 06:22:14;;;;;;;5.18;1.00;;;;;21.50;101242.00;;;;5047350;28;20716;-75
2021/08/02 06:24:43;;;;;;;1.70;0.80;;;;;21.50;101240.00;;;;5045529;28;20195;-76
2021/08/02 06:27:11;;;;;;;2.00;1.00;;;;;21.60;101249.00;;;;5044915;28;20590;-76
2021/08/02 06:29:38;;;;;;;2.35;1.00;;;;;21.70;101246.00;;;;5047484;28;20192;-76
2021/08/02 06:32:06;;;;;;;4.45;0.90;;;;;21.70;101246.00;;;;5042074;28;20227;-76
2021/08/02 06:34:34;;;;;;;2.00;0.80;;;;;21.80;101251.00;;;;5042395;28;20224;-78
2021/08/02 06:37:03;;;;;;;0.80;0.60;;;;;21.80;101244.00;;;;5041438;28;20207;-76
2021/08/02 06:39:30;;;;;;;1.75;0.90;;;;;21.90;101258.00;;;;5045262;28;20192;-76
2021/08/02 06:41:57;;;;;;;1.20;0.63;;;;;21.90;101254.00;;;;5041349;28;20200;-75
2021/08/02 06:44:24;;;;;;;2.13;0.90;;;;;22.00;101251.00;;;;5048873;28;20206;-75
2021/08/02 06:46:52;;;;;;;3.42;0.70;;;;;22.00;101255.00;;;;5048636;28;20196;-76
2021/08/02 06:49:19;;;;;;;1.30;0.90;;;;;22.10;101261.00;;;;5046770;28;20203;-75
2021/08/02 06:51:46;;;;;;;0.77;0.73;;;;;22.10;101253.00;;;;5032275;28;20215;-76
2021/08/02 06:54:15;;;;;;;2.72;1.02;;;;;22.20;101260.00;;;;5040610;28;20196;-77
2021/08/02 06:56:42;;;;;;;1.55;0.70;;;;;22.20;101256.00;;;;5038998;28;20593;-75
2021/08/02 06:59:09;;;;;;;2.63;0.50;;;;;22.30;101256.00;;;;5045321;28;20257;-75
2021/08/02 07:01:37;;;;;;;2.10;0.57;;;;;22.40;101252.00;;;;5042744;28;20199;-75
2021/08/02 07:04:05;;;;;;;3.67;1.10;;;;;22.40;101251.00;;;;5045465;28;20227;-75
2021/08/02 07:06:32;;;;;;;1.50;0.57;;;;;22.50;101263.00;;;;5042881;28;20282;-75
2021/08/02 07:08:59;;;;;;;2.95;0.68;;;;;22.60;101261.00;;;;5045362;28;20196;-76
2021/08/02 07:11:28;;;;;;;1.70;0.57;;;;;22.60;101260.00;;;;5041878;28;20200;-75
2021/08/02 07:13:56;;;;;;;2.92;0.70;;;;;22.70;101269.00;;;;5044490;28;20199;-78
2021/08/02 07:16:23;;;;;;;0.98;0.60;;;;;22.70;101264.00;;;;5045514;28;20200;-78
2021/08/02 07:18:51;;;;;;;3.80;0.82;;;;;22.80;101257.00;;;;5044584;28;20192;-78
2021/08/02 07:21:19;;;;;;;0.70;0.45;;;;;22.80;101266.00;;;;5039723;28;20192;-78
2021/08/02 07:23:46;;;;;;;3.00;0.68;;;;;22.80;101268.00;;;;5028765;28;20267;-78
2021/08/02 07:26:14;;;;;;;1.95;0.60;;;;;22.80;101272.00;;;;5037601;28;20223;-78
2021/08/02 07:28:43;;;;;;;1.70;0.80;;;;;22.80;101269.00;;;;5032694;28;20663;-78
2021/08/02 07:31:11;;;;;;;2.10;0.95;;;;;22.80;101269.00;;;;5039081;28;20271;-77
2021/08/02 07:33:39;;;;;;;1.20;0.60;;;;;22.80;101270.00;;;;5041025;28;20216;-77
2021/08/02 07:36:08;;;;;;;1.52;0.70;;;;;22.80;101271.00;;;;5046216;28;20192;-78
2021/08/02 07:38:35;;;;;;;1.77;0.60;;;;;22.80;101271.00;;;;5034209;28;20236;-79
2021/08/02 07:41:03;;;;;;;0.77;0.47;;;;;22.90;101269.00;;;;5042240;28;20230;-77
2021/08/02 07:43:30;;;;;;;2.53;0.60;;;;;22.90;101271.00;;;;5047237;28;20223;-78
2021/08/02 07:45:58;;;;;;;2.60;0.57;;;;;22.90;101267.00;;;;5038581;28;20200;-78
2021/08/02 07:48:26;;;;;;;2.22;0.70;;;;;23.00;101269.00;;;;5039944;28;20199;-78
2021/08/02 07:50:53;;;;;;;1.27;0.47;;;;;23.00;101269.00;;;;5043296;28;20215;-78
2021/08/02 07:53:20;;;;;;;4.10;0.93;;;;;23.00;101279.00;;;;5041741;28;20208;-78
2021/08/02 07:55:48;;;;;;;0.77;0.40;;;;;23.10;101282.00;;;;5027941;28;20670;-78
2021/08/02 07:58:15;;;;;;;1.98;0.77;;;;;23.10;101285.00;;;;5039684;28;20207;-77
2021/08/02 08:00:43;;;;;;;2.33;0.60;;;;;23.10;101280.00;;;;5039527;28;20196;-78
2021/08/02 08:03:12;;;;;;;0.90;0.57;;;;;23.10;101280.00;;;;5043328;28;20231;-78
2021/08/02 08:05:40;;;;;;;2.05;0.70;;;;;23.10;101277.00;;;;5032726;28;20239;-78
2021/08/02 08:08:07;;;;;;;1.95;0.60;;;;;23.20;101271.00;;;;5037144;28;20187;-77
2021/08/02 08:10:34;;;;;;;2.60;0.68;;;;;23.30;101277.00;;;;5045838;28;20207;-78
2021/08/02 08:13:02;;;;;;;1.48;0.50;;;;;23.40;101272.00;;;;5042287;28;20203;-78
2021/08/02 08:15:30;;;;;;;1.17;0.45;;;;;23.50;101273.00;;;;5038528;28;20637;-78
2021/08/02 08:17:57;;;;;;;2.08;0.52;;;;;23.60;101280.00;;;;5041700;28;20207;-78
2021/08/02 08:20:26;;;;;;;2.65;0.80;;;;;23.60;101275.00;;;;5044694;28;20200;-78
2021/08/02 08:22:54;;;;;;;2.78;0.60;;;;;23.70;101276.00;;;;5045671;28;20230;-78
2021/08/02 08:25:22;;;;;;;0.70;0.63;;;;;23.70;101280.00;;;;5046476;28;20207;-77
2021/08/02 08:27:50;;;;;;;1.58;0.73;;;;;23.70;101277.00;;;;5046085;28;20509;-77
2021/08/02 08:30:19;;;;;;;0.93;0.52;;;;;23.60;101272.00;;;;5047495;28;20270;-77
2021/08/02 08:32:46;;;;;;;1.25;0.63;;;;;23.70;101284.00;;;;5039471;28;20196;-78
2021/08/02 08:35:15;;;;;;;1.63;0.63;;;;;23.70;101275.00;;;;5043569;28;20223;-77
2021/08/02 08:37:43;;;;;;;0.90;0.45;;;;;23.70;101278.00;;;;5038151;28;20203;-79
2021/08/02 08:40:12;;;;;;;1.33;0.45;;;;;23.80;101279.00;;;;5031845;28;20211;-78
2021/08/02 08:42:41;;;;;;;2.17;0.82;;;;;23.90;101280.00;;;;5046361;28;20199;-78
2021/08/02 08:45:09;;;;;;;2.38;0.52;;;;;24.00;101285.00;;;;5047373;28;20234;-77
2021/08/02 08:47:36;;;;;;;0.77;0.40;;;;;24.00;101285.00;;;;5031840;28;20698;-78
2021/08/02 08:50:06;;;;;;;1.15;0.38;;;;;24.00;101284.00;;;;5030973;28;20208;-77
2021/08/02 08:52:35;;;;;;;3.63;0.63;;;;;24.00;101288.00;;;;5032200;28;20207;-77
2021/08/02 08:55:08;;;;;;;1.23;0.63;;;;;23.90;101296.00;;;;5043368;28;20725;-77
2021/08/02 08:57:35;;;;;;;0.88;0.40;;;;;23.90;101295.00;;;;5045281;28;20208;-78
2021/08/02 09:00:04;;;;;;;1.30;0.55;;;;;23.80;101303.00;;;;5031562;28;20216;-76
2021/08/02 09:02:31;;;;;;;1.42;0.40;;;;;23.70;101302.00;;;;5051109;28;20222;-76
2021/08/02 09:05:00;;;;;;;2.13;0.55;;;;;23.70;101305.00;;;;5033751;28;20577;-76
2021/08/02 09:07:38;;;;;;;2.08;0.50;;;;;23.50;101304.00;;;;5038929;28;20211;-76
2021/08/02 09:10:09;;;;;;;2.17;0.60;;;;;23.50;101306.00;;;;5031415;28;20197;-76
2021/08/02 09:12:48;;;;;;;1.77;0.80;;;;;23.50;101307.00;;;;5044193;28;20200;-76
2021/08/02 09:15:15;;;;;;;2.20;0.55;;;;;23.50;101310.00;;;;5043018;28;20673;-76
2021/08/02 09:17:42;;;;;;;2.53;0.60;;;;;23.40;101316.00;;;;5046040;28;20665;-76
2021/08/02 09:20:19;;;;;;;4.70;1.20;;;;;23.30;101316.00;;;;5036720;28;20214;-76
2021/08/02 09:22:47;;;;;;;1.50;0.50;;;;;23.40;101324.00;;;;5048403;28;20199;-76
2021/08/02 09:25:19;;;;;;;0.85;0.60;;;;;23.30;101322.00;;;;5050300;28;20219;-76
2021/08/02 09:27:47;;;;;;;1.63;0.60;;;;;23.30;101326.00;;;;5042747;28;20227;-76
2021/08/02 09:30:17;;;;;;;2.47;0.60;;;;;23.30;101324.00;;;;5031169;28;20208;-76
2021/08/02 09:32:49;;;;;;;1.65;0.85;;;;;23.20;101322.00;;;;5031246;28;20230;-77
2021/08/02 09:35:27;;;;;;;5.35;0.65;;;;;23.10;101326.00;;;;5046839;28;20228;-76
2021/08/02 09:37:55;;;;;;;1.52;0.40;;;;;23.20;101323.00;;;;5030747;28;20200;-76
2021/08/02 09:40:24;;;;;;;2.40;0.70;;;;;23.20;101325.00;;;;5050414;28;20200;-76
2021/08/02 09:42:58;;;;;;;2.65;0.70;;;;;23.10;101322.00;;;;5044313;28;20203;-76
2021/08/02 09:45:27;;;;;;;1.27;0.68;;;;;23.20;101327.00;;;;5041318;28;20200;-77
2021/08/02 09:47:54;;;;;;;1.55;0.60;;;;;23.20;101328.00;;;;5038400;28;20207;-76
2021/08/02 09:50:29;;;;;;;2.85;0.57;;;;;23.20;101315.00;;;;5033533;28;20202;-76
2021/08/02 09:52:57;;;;;;;2.08;0.60;;;;;23.20;101325.00;;;;5047286;28;20203;-76
2021/08/02 09:55:26;;;;;;;2.53;0.50;;;;;23.30;101321.00;;;;5031247;28;20207;-76
2021/08/02 09:57:54;;;;;;;1.02;0.55;;;;;23.30;101325.00;;;;5042884;28;20626;-76
2021/08/02 10:00:23;;;;;;;1.80;0.40;;;;;23.40;101319.00;;;;5037774;28;20220;-76
2021/08/02 10:02:51;;;;;;;3.50;0.80;;;;;23.40;101320.00;;;;5036303;28;20207;-76
2021/08/02 10:05:20;;;;;;;0.70;0.50;;;;;23.50;101316.00;;;;5030364;28;20231;-76
2021/08/02 10:07:48;;;;;;;1.90;0.60;;;;;23.60;101323.00;;;;5038775;28;20784;-76
2021/08/02 10:10:17;;;;;;;3.28;0.60;;;;;23.70;101312.00;;;;5049026;28;20283;-80
2021/08/02 10:12:48;;;;;;;2.63;0.57;;;;;23.70;101322.00;;;;5049527;28;20227;-79
2021/08/02 10:15:18;;;;;;;1.67;0.93;;;;;23.80;101319.00;;;;5043608;28;20200;-77
2021/08/02 10:17:49;;;;;;;2.92;0.60;;;;;23.80;101317.00;;;;5043100;28;20204;-76
2021/08/02 10:20:19;;;;;;;2.70;0.45;;;;;24.00;101312.00;;;;5037933;28;20207;-76
2021/08/02 10:22:47;;;;;;;3.70;0.85;;;;;24.10;101313.00;;;;5035717;28;20200;-76
2021/08/02 10:25:14;;;;;;;3.50;0.52;;;;;24.20;101313.00;;;;5036698;28;20745;-76
2021/08/02 10:27:42;;;;;;;1.33;0.57;;;;;24.40;101316.00;;;;5035991;28;20212;-77
2021/08/02 10:30:25;;;;;;;0.93;0.40;;;;;24.40;101312.00;;;;5043370;28;20195;-76
2021/08/02 10:32:54;;;;;;;4.78;0.50;;;;;24.60;101316.00;;;;5044311;28;20215;-76
2021/08/02 10:35:39;;;;;;;1.20;0.50;;;;;24.70;101315.00;;;;5045237;28;20239;-76
2021/08/02 10:38:08;;;;;;;1.23;0.47;;;;;24.90;101313.00;;;;5032151;28;20197;-76
2021/08/02 10:40:50;;;;;;;1.67;1.00;;;;;24.90;101314.00;;;;5042459;28;20207;-77
2021/08/02 10:43:29;;;;;;;0.98;0.85;;;;;25.00;101316.00;;;;5047220;28;20251;-76
2021/08/02 10:45:58;;;;;;;1.55;0.73;;;;;25.10;101312.00;;;;5048486;28;20196;-76
2021/08/02 10:48:27;;;;;;;2.80;0.70;;;;;25.20;101313.00;;;;5039675;28;20192;-77
2021/08/02 10:50:55;;;;;;;2.15;0.43;;;;;25.20;101316.00;;;;5029753;28;20209;-77
2021/08/02 10:53:23;;;;;;;1.17;0.45;;;;;25.20;101318.00;;;;5033160;28;20208;-77
2021/08/02 10:55:52;;;;;;;2.83;0.50;;;;;25.20;101316.00;;;;5041204;28;20287;-78
2021/08/02 10:58:31;;;;;;;1.73;0.47;;;;;25.10;101313.00;;;;5036450;28;20205;-76
2021/08/02 11:01:01;;;;;;;2.08;0.40;;;;;25.10;101304.00;;;;5043471;28;20265;-77
2021/08/02 11:03:32;;;;;;;1.02;0.70;;;;;25.20;101306.00;;;;5038582;28;20224;-77
2021/08/02 11:06:10;;;;;;;0.82;0.40;;;;;25.30;101320.00;;;;5029817;28;20250;-77
2021/08/02 11:08:49;;;;;;;2.58;0.90;;;;;25.20;101310.00;;;;5031764;28;20200;-76
2021/08/02 11:11:22;;;;;;;0.88;0.50;;;;;25.30;101305.00;;;;5037656;28;20280;-76
2021/08/02 11:13:50;;;;;;;0.82;0.55;;;;;25.40;101306.00;;;;5035816;28;20196;-76
2021/08/02 11:16:19;;;;;;;1.15;0.60;;;;;25.40;101309.00;;;;5042714;28;20269;-76
2021/08/02 11:18:47;;;;;;;1.60;0.80;;;;;25.50;101313.00;;;;5037510;28;20199;-76
2021/08/02 11:21:25;;;;;;;4.10;0.60;;;;;25.40;101307.00;;;;5039389;28;20668;-76
2021/08/02 11:23:55;;;;;;;1.17;0.60;;;;;25.50;101311.00;;;;5035799;28;20227;-76
2021/08/02 11:26:22;;;;;;;1.05;0.68;;;;;25.60;101315.00;;;;5048498;28;20261;-76
2021/08/02 11:28:54;;;;;;;1.10;0.60;;;;;25.60;101309.00;;;;5048242;28;20231;-76
2021/08/02 11:31:26;;;;;;;2.00;0.50;;;;;25.60;101314.00;;;;5033188;28;20200;-76
2021/08/02 11:33:54;;;;;;;2.40;0.80;;;;;25.70;101317.00;;;;5045508;28;20226;-77
2021/08/02 11:36:22;;;;;;;2.42;0.50;;;;;25.80;101313.00;;;;5042038;28;20204;-76
2021/08/02 11:38:51;;;;;;;0.93;0.55;;;;;25.80;101325.00;;;;5045683;28;20562;-77
2021/08/02 11:41:27;;;;;;;1.00;0.43;;;;;25.80;101323.00;;;;5043937;28;20207;-77
2021/08/02 11:43:56;;;;;;;0.98;0.50;;;;;25.90;101328.00;;;;5029505;28;20230;-77
2021/08/02 11:46:26;;;;;;;0.77;0.50;;;;;25.90;101324.00;;;;5035522;28;20212;-77
2021/08/02 11:48:53;;;;;;;2.10;0.75;;;;;26.00;101329.00;;;;5027222;28;20208;-76
2021/08/02 11:51:21;;;;;;;0.88;0.63;;;;;26.00;101328.00;;;;5045102;28;20713;-76
2021/08/02 11:53:48;;;;;;;1.20;0.55;;;;;26.00;101333.00;;;;5034527;28;20208;-76
2021/08/02 11:56:18;;;;;;;0.73;0.50;;;;;26.00;101329.00;;;;5036580;28;20212;-75
2021/08/02 11:58:48;;;;;;;2.10;0.70;;;;;26.00;101335.00;;;;5039605;28;20196;-76
2021/08/02 12:01:15;;;;;;;1.23;0.57;;;;;26.00;101339.00;;;;5042690;28;20204;-78
2021/08/02 12:03:48;;;;;;;2.45;0.60;;;;;25.90;101332.00;;;;5040543;28;20196;-76
2021/08/02 12:06:15;;;;;;;2.72;0.55;;;;;26.00;101338.00;;;;5032779;28;20200;-76
2021/08/02 12:08:51;;;;;;;2.72;0.70;;;;;25.90;101334.00;;;;5038362;28;20567;-76
2021/08/02 12:11:18;;;;;;;1.77;0.65;;;;;26.00;101336.00;;;;5037955;28;20196;-74
2021/08/02 12:13:47;;;;;;;1.20;0.68;;;;;26.00;101341.00;;;;5038308;28;20195;-76
2021/08/02 12:16:27;;;;;;;0.90;0.40;;;;;25.80;101338.00;;;;5041605;28;20204;-75
2021/08/02 12:19:05;;;;;;;1.10;0.63;;;;;25.80;101339.00;;;;5033359;28;20537;-75